sensor_id;sensor_type;location;lat;lon;timestamp;pressure;altitude;pressure_sealevel;temperature;humidity
73284;BME280;61519;60.050;18.582;2024-01-30T00:00:34;102458.00;;;2.44;63.59
73284;BME280;61519;60.050;18.582;2024-01-30T00:02:59;102456.69;;;2.37;63.50
73284;BME280;61519;60.050;18.582;2024-01-30T00:05:24;102434.00;;;2.23;63.47
73284;BME280;61519;60.050;18.582;2024-01-30T00:07:50;102450.81;;;2.33;63.68
73284;BME280;61519;60.050;18.582;2024-01-30T00:10:15;102413.41;;;2.03;63.64
73284;BME280;61519;60.050;18.582;2024-01-30T00:12:41;102437.84;;;2.16;63.77
73284;BME280;61519;60.050;18.582;2024-01-30T00:15:06;102446.41;;;2.18;63.75
73284;BME280;61519;60.050;18.582;2024-01-30T00:17:35;102431.97;;;2.13;63.65
73284;BME280;61519;60.050;18.582;2024-01-30T00:20:00;102436.34;;;2.12;63.74
73284;BME280;61519;60.050;18.582;2024-01-30T00:22:26;102435.91;;;2.04;63.83
73284;BME280;61519;60.050;18.582;2024-01-30T00:24:51;102420.69;;;1.97;63.74
73284;BME280;61519;60.050;18.582;2024-01-30T00:27:16;102424.88;;;1.99;63.62
73284;BME280;61519;60.050;18.582;2024-01-30T00:29:41;102440.19;;;2.05;63.96
73284;BME280;61519;60.050;18.582;2024-01-30T00:32:07;102439.66;;;1.99;63.84
73284;BME280;61519;60.050;18.582;2024-01-30T00:34:32;102424.00;;;1.83;64.00
73284;BME280;61519;60.050;18.582;2024-01-30T00:36:57;102447.63;;;1.96;63.79
73284;BME280;61519;60.050;18.582;2024-01-30T00:39:23;102452.84;;;1.96;63.80
73284;BME280;61519;60.050;18.582;2024-01-30T00:41:48;102415.09;;;1.71;63.74
73284;BME280;61519;60.050;18.582;2024-01-30T00:44:13;102446.34;;;1.87;63.91
73284;BME280;61519;60.050;18.582;2024-01-30T00:46:39;102450.19;;;1.80;63.77
73284;BME280;61519;60.050;18.582;2024-01-30T00:49:04;102445.13;;;1.77;63.69
73284;BME280;61519;60.050;18.582;2024-01-30T00:51:29;102455.41;;;1.80;63.93
73284;BME280;61519;60.050;18.582;2024-01-30T00:53:55;102441.94;;;1.72;63.75
73284;BME280;61519;60.050;18.582;2024-01-30T00:56:20;102441.38;;;1.67;63.86
73284;BME280;61519;60.050;18.582;2024-01-30T00:58:46;102427.16;;;1.57;63.81
73284;BME280;61519;60.050;18.582;2024-01-30T01:01:11;102457.72;;;1.69;63.68
73284;BME280;61519;60.050;18.582;2024-01-30T01:03:37;102466.44;;;1.68;64.04
73284;BME280;61519;60.050;18.582;2024-01-30T01:06:02;102458.03;;;1.63;64.15
73284;BME280;61519;60.050;18.582;2024-01-30T01:08:28;102466.59;;;1.65;64.00
73284;BME280;61519;60.050;18.582;2024-01-30T01:10:53;102465.84;;;1.63;63.93
73284;BME280;61519;60.050;18.582;2024-01-30T01:13:19;102461.63;;;1.60;64.10
73284;BME280;61519;60.050;18.582;2024-01-30T01:15:44;102459.16;;;1.57;64.03
73284;BME280;61519;60.050;18.582;2024-01-30T01:18:09;102438.94;;;1.47;64.13
73284;BME280;61519;60.050;18.582;2024-01-30T01:20:35;102456.97;;;1.50;64.04
73284;BME280;61519;60.050;18.582;2024-01-30T01:23:00;102439.53;;;1.35;64.17
73284;BME280;61519;60.050;18.582;2024-01-30T01:25:26;102456.97;;;1.50;63.99
73284;BME280;61519;60.050;18.582;2024-01-30T01:27:51;102461.41;;;1.48;64.08
73284;BME280;61519;60.050;18.582;2024-01-30T01:30:18;102453.00;;;1.43;64.35
73284;BME280;61519;60.050;18.582;2024-01-30T01:32:48;102462.47;;;1.44;64.44
73284;BME280;61519;60.050;18.582;2024-01-30T01:35:23;102447.34;;;1.35;64.10
73284;BME280;61519;60.050;18.582;2024-01-30T01:37:50;102464.47;;;1.39;64.17
73284;BME280;61519;60.050;18.582;2024-01-30T01:40:22;102430.81;;;1.19;64.03
73284;BME280;61519;60.050;18.582;2024-01-30T01:42:47;102430.53;;;1.08;63.97
73284;BME280;61519;60.050;18.582;2024-01-30T01:45:13;102467.47;;;1.31;64.28
73284;BME280;61519;60.050;18.582;2024-01-30T01:47:39;102461.56;;;1.28;64.17
73284;BME280;61519;60.050;18.582;2024-01-30T01:50:04;102436.31;;;1.13;64.25
73284;BME280;61519;60.050;18.582;2024-01-30T01:52:30;102456.69;;;1.22;64.18
73284;BME280;61519;60.050;18.582;2024-01-30T01:54:55;102455.06;;;1.19;64.32
73284;BME280;61519;60.050;18.582;2024-01-30T01:57:20;102442.38;;;1.13;64.23
73284;BME280;61519;60.050;18.582;2024-01-30T01:59:47;102459.50;;;1.17;64.19
73284;BME280;61519;60.050;18.582;2024-01-30T02:02:14;102440.16;;;1.06;64.19
73284;BME280;61519;60.050;18.582;2024-01-30T02:04:42;102464.69;;;1.17;64.39
73284;BME280;61519;60.050;18.582;2024-01-30T02:07:09;102463.84;;;1.17;64.41
73284;BME280;61519;60.050;18.582;2024-01-30T02:09:34;102449.31;;;1.13;64.40
73284;BME280;61519;60.050;18.582;2024-01-30T02:12:00;102445.06;;;1.12;64.47
73284;BME280;61519;60.050;18.582;2024-01-30T02:14:25;102451.78;;;1.16;64.42
73284;BME280;61519;60.050;18.582;2024-01-30T02:16:50;102432.56;;;1.01;64.10
73284;BME280;61519;60.050;18.582;2024-01-30T02:19:16;102436.03;;;1.02;64.40
73284;BME280;61519;60.050;18.582;2024-01-30T02:21:41;102425.84;;;0.97;64.42
73284;BME280;61519;60.050;18.582;2024-01-30T02:24:06;102447.78;;;1.09;64.18
73284;BME280;61519;60.050;18.582;2024-01-30T02:26:32;102456.44;;;1.09;64.12
73284;BME280;61519;60.050;18.582;2024-01-30T02:28:57;102450.38;;;1.09;64.33
73284;BME280;61519;60.050;18.582;2024-01-30T02:31:25;102456.25;;;1.12;64.42
73284;BME280;61519;60.050;18.582;2024-01-30T02:33:50;102448.72;;;1.08;64.57
73284;BME280;61519;60.050;18.582;2024-01-30T02:36:16;102438.31;;;1.08;64.49
73284;BME280;61519;60.050;18.582;2024-01-30T02:38:41;102433.44;;;1.02;64.46
73284;BME280;61519;60.050;18.582;2024-01-30T02:41:06;102455.44;;;1.12;64.03
73284;BME280;61519;60.050;18.582;2024-01-30T02:43:32;102433.50;;;1.00;64.46
73284;BME280;61519;60.050;18.582;2024-01-30T02:45:57;102451.06;;;1.12;64.31
73284;BME280;61519;60.050;18.582;2024-01-30T02:48:24;102404.50;;;0.90;64.31
73284;BME280;61519;60.050;18.582;2024-01-30T02:50:50;102442.38;;;1.13;64.33
73284;BME280;61519;60.050;18.582;2024-01-30T02:53:15;102428.22;;;1.02;64.36
73284;BME280;61519;60.050;18.582;2024-01-30T02:55:40;102424.88;;;1.00;64.28
73284;BME280;61519;60.050;18.582;2024-01-30T02:58:06;102419.81;;;0.97;64.60
73284;BME280;61519;60.050;18.582;2024-01-30T03:00:31;102453.63;;;1.14;64.32
73284;BME280;61519;60.050;18.582;2024-01-30T03:02:57;102416.31;;;0.98;64.37
73284;BME280;61519;60.050;18.582;2024-01-30T03:05:22;102445.06;;;1.12;64.46
73284;BME280;61519;60.050;18.582;2024-01-30T03:07:47;102441.53;;;1.13;64.53
73284;BME280;61519;60.050;18.582;2024-01-30T03:10:13;102453.63;;;1.14;64.60
73284;BME280;61519;60.050;18.582;2024-01-30T03:12:38;102437.63;;;1.04;64.32
73284;BME280;61519;60.050;18.582;2024-01-30T03:15:04;102426.53;;;1.01;64.43
73284;BME280;61519;60.050;18.582;2024-01-30T03:17:29;102434.19;;;1.04;64.44
73284;BME280;61519;60.050;18.582;2024-01-30T03:19:54;102443.53;;;1.08;64.77
73284;BME280;61519;60.050;18.582;2024-01-30T03:22:20;102437.09;;;0.98;64.60
73284;BME280;61519;60.050;18.582;2024-01-30T03:24:45;102462.47;;;1.10;64.73
73284;BME280;61519;60.050;18.582;2024-01-30T03:27:10;102440.44;;;1.00;64.55
73284;BME280;61519;60.050;18.582;2024-01-30T03:29:36;102456.59;;;1.06;64.35
73284;BME280;61519;60.050;18.582;2024-01-30T03:32:01;102451.75;;;0.99;64.59
73284;BME280;61519;60.050;18.582;2024-01-30T03:34:29;102445.78;;;0.97;64.60
73284;BME280;61519;60.050;18.582;2024-01-30T03:36:54;102466.91;;;1.08;64.67
73284;BME280;61519;60.050;18.582;2024-01-30T03:39:19;102453.44;;;1.00;64.32
73284;BME280;61519;60.050;18.582;2024-01-30T03:41:44;102450.16;;;0.96;64.57
73284;BME280;61519;60.050;18.582;2024-01-30T03:44:10;102465.22;;;1.07;64.29
73284;BME280;61519;60.050;18.582;2024-01-30T03:46:36;102455.75;;;1.06;64.66
73284;BME280;61519;60.050;18.582;2024-01-30T03:49:02;102476.53;;;1.06;64.40
73284;BME280;61519;60.050;18.582;2024-01-30T03:51:28;102456.03;;;1.00;64.55
73284;BME280;61519;60.050;18.582;2024-01-30T03:53:53;102468.66;;;1.07;64.35
73284;BME280;61519;60.050;18.582;2024-01-30T03:56:18;102466.28;;;1.03;64.87
73284;BME280;61519;60.050;18.582;2024-01-30T03:58:44;102457.19;;;0.94;64.33
73284;BME280;61519;60.050;18.582;2024-01-30T04:01:16;102449.16;;;0.99;64.64
73284;BME280;61519;60.050;18.582;2024-01-30T04:03:41;102459.41;;;1.02;64.68
73284;BME280;61519;60.050;18.582;2024-01-30T04:06:08;102476.38;;;1.09;64.38
73284;BME280;61519;60.050;18.582;2024-01-30T04:08:34;102435.84;;;0.87;64.39
73284;BME280;61519;60.050;18.582;2024-01-30T04:11:03;102451.81;;;0.97;64.22
73284;BME280;61519;60.050;18.582;2024-01-30T04:13:29;102436.00;;;0.84;64.51
73284;BME280;61519;60.050;18.582;2024-01-30T04:15:54;102463.63;;;1.04;64.24
73284;BME280;61519;60.050;18.582;2024-01-30T04:18:20;102437.50;;;0.88;64.57
73284;BME280;61519;60.050;18.582;2024-01-30T04:20:45;102462.53;;;1.08;64.57
73284;BME280;61519;60.050;18.582;2024-01-30T04:23:11;102474.69;;;1.08;64.57
73284;BME280;61519;60.050;18.582;2024-01-30T04:25:36;102472.09;;;1.08;64.54
73284;BME280;61519;60.050;18.582;2024-01-30T04:28:01;102467.81;;;1.07;64.58
73284;BME280;61519;60.050;18.582;2024-01-30T04:30:27;102471.34;;;1.06;64.35
73284;BME280;61519;60.050;18.582;2024-01-30T04:32:52;102469.63;;;1.05;64.57
73284;BME280;61519;60.050;18.582;2024-01-30T04:35:17;102460.25;;;1.02;64.25
73284;BME280;61519;60.050;18.582;2024-01-30T04:37:42;102459.53;;;0.99;64.65
73284;BME280;61519;60.050;18.582;2024-01-30T04:40:08;102436.00;;;0.84;64.52
73284;BME280;61519;60.050;18.582;2024-01-30T04:42:34;102462.09;;;1.00;64.43
73284;BME280;61519;60.050;18.582;2024-01-30T04:45:00;102467.97;;;1.04;64.32
73284;BME280;61519;60.050;18.582;2024-01-30T04:47:25;102456.13;;;0.98;64.71
73284;BME280;61519;60.050;18.582;2024-01-30T04:49:51;102466.13;;;1.06;64.09
73284;BME280;61519;60.050;18.582;2024-01-30T04:52:16;102451.06;;;0.95;64.42
73284;BME280;61519;60.050;18.582;2024-01-30T04:54:42;102461.03;;;1.04;64.24
73284;BME280;61519;60.050;18.582;2024-01-30T04:57:07;102456.16;;;0.97;64.44
73284;BME280;61519;60.050;18.582;2024-01-30T04:59:35;102440.75;;;0.94;64.75
73284;BME280;61519;60.050;18.582;2024-01-30T05:02:00;102430.81;;;0.84;64.49
73284;BME280;61519;60.050;18.582;2024-01-30T05:04:26;102457.41;;;1.07;64.61
73284;BME280;61519;60.050;18.582;2024-01-30T05:06:51;102441.34;;;0.99;64.59
73284;BME280;61519;60.050;18.582;2024-01-30T05:09:16;102463.28;;;1.10;64.28
73284;BME280;61519;60.050;18.582;2024-01-30T05:11:42;102443.81;;;1.02;64.47
73284;BME280;61519;60.050;18.582;2024-01-30T05:14:07;102449.63;;;1.07;64.51
73284;BME280;61519;60.050;18.582;2024-01-30T05:16:34;102444.41;;;1.07;64.46
73284;BME280;61519;60.050;18.582;2024-01-30T05:18:59;102436.72;;;1.05;64.64
73284;BME280;61519;60.050;18.582;2024-01-30T05:21:25;102458.81;;;1.14;64.46
73284;BME280;61519;60.050;18.582;2024-01-30T05:23:50;102446.59;;;1.16;64.75
73284;BME280;61519;60.050;18.582;2024-01-30T05:26:16;102435.47;;;1.12;64.50
73284;BME280;61519;60.050;18.582;2024-01-30T05:28:41;102448.41;;;1.14;64.57
73284;BME280;61519;60.050;18.582;2024-01-30T05:31:06;102449.09;;;1.17;64.66
73284;BME280;61519;60.050;18.582;2024-01-30T05:33:32;102432.19;;;1.09;64.74
73284;BME280;61519;60.050;18.582;2024-01-30T05:35:57;102444.00;;;1.16;64.51
73284;BME280;61519;60.050;18.582;2024-01-30T05:38:22;102448.25;;;1.17;64.80
73284;BME280;61519;60.050;18.582;2024-01-30T05:40:48;102448.25;;;1.17;64.58
73284;BME280;61519;60.050;18.582;2024-01-30T05:43:13;102440.69;;;1.12;64.76
73284;BME280;61519;60.050;18.582;2024-01-30T05:45:38;102474.41;;;1.31;64.51
73284;BME280;61519;60.050;18.582;2024-01-30T05:48:04;102465.69;;;1.32;64.73
73284;BME280;61519;60.050;18.582;2024-01-30T05:50:30;102452.84;;;1.29;64.70
73284;BME280;61519;60.050;18.582;2024-01-30T05:52:55;102423.97;;;1.18;64.65
73284;BME280;61519;60.050;18.582;2024-01-30T05:55:21;102447.47;;;1.32;64.78
73284;BME280;61519;60.050;18.582;2024-01-30T05:57:46;102448.88;;;1.39;64.78
73284;BME280;61519;60.050;18.582;2024-01-30T06:00:12;102450.63;;;1.38;64.70
73284;BME280;61519;60.050;18.582;2024-01-30T06:02:37;102448.09;;;1.37;64.70
73284;BME280;61519;60.050;18.582;2024-01-30T06:05:03;102452.25;;;1.41;64.96
73284;BME280;61519;60.050;18.582;2024-01-30T06:07:28;102433.00;;;1.28;64.83
73284;BME280;61519;60.050;18.582;2024-01-30T06:09:54;102463.50;;;1.41;64.62
73284;BME280;61519;60.050;18.582;2024-01-30T06:12:19;102436.28;;;1.31;64.47
73284;BME280;61519;60.050;18.582;2024-01-30T06:14:44;102443.81;;;1.36;64.67
73284;BME280;61519;60.050;18.582;2024-01-30T06:17:10;102449.47;;;1.44;64.86
73284;BME280;61519;60.050;18.582;2024-01-30T06:19:37;102435.97;;;1.37;64.84
73284;BME280;61519;60.050;18.582;2024-01-30T06:22:02;102443.50;;;1.42;64.86
73284;BME280;61519;60.050;18.582;2024-01-30T06:24:28;102435.78;;;1.40;64.45
73284;BME280;61519;60.050;18.582;2024-01-30T06:26:53;102448.56;;;1.45;64.79
73284;BME280;61519;60.050;18.582;2024-01-30T06:29:18;102448.56;;;1.45;64.82
73284;BME280;61519;60.050;18.582;2024-01-30T06:31:44;102443.38;;;1.45;64.70
73284;BME280;61519;60.050;18.582;2024-01-30T06:34:09;102422.34;;;1.32;64.81
73284;BME280;61519;60.050;18.582;2024-01-30T06:36:36;102440.69;;;1.46;64.63
73284;BME280;61519;60.050;18.582;2024-01-30T06:39:02;102437.22;;;1.46;64.91
73284;BME280;61519;60.050;18.582;2024-01-30T06:41:27;102416.16;;;1.35;64.72
73284;BME280;61519;60.050;18.582;2024-01-30T06:43:53;102432.97;;;1.45;64.76
73284;BME280;61519;60.050;18.582;2024-01-30T06:46:18;102424.81;;;1.35;64.59
73284;BME280;61519;60.050;18.582;2024-01-30T06:48:43;102437.31;;;1.44;65.01
73284;BME280;61519;60.050;18.582;2024-01-30T06:51:10;102417.31;;;1.29;64.76
73284;BME280;61519;60.050;18.582;2024-01-30T06:53:36;102446.88;;;1.44;64.73
73284;BME280;61519;60.050;18.582;2024-01-30T06:56:02;102441.00;;;1.40;64.79
73284;BME280;61519;60.050;18.582;2024-01-30T06:58:27;102434.34;;;1.35;64.73
73284;BME280;61519;60.050;18.582;2024-01-30T07:00:54;102443.69;;;1.39;65.06
73284;BME280;61519;60.050;18.582;2024-01-30T07:03:19;102437.78;;;1.35;64.71
73284;BME280;61519;60.050;18.582;2024-01-30T07:05:45;102427.03;;;1.26;64.68
73284;BME280;61519;60.050;18.582;2024-01-30T07:08:10;102427.03;;;1.26;64.90
73284;BME280;61519;60.050;18.582;2024-01-30T07:10:35;102444.66;;;1.36;64.97
73284;BME280;61519;60.050;18.582;2024-01-30T07:13:01;102443.75;;;1.37;64.97
73284;BME280;61519;60.050;18.582;2024-01-30T07:15:26;102435.25;;;1.34;64.68
73284;BME280;61519;60.050;18.582;2024-01-30T07:17:51;102435.88;;;1.39;64.78
73284;BME280;61519;60.050;18.582;2024-01-30T07:20:17;102437.53;;;1.40;64.81
73284;BME280;61519;60.050;18.582;2024-01-30T07:22:45;102445.88;;;1.46;64.62
73284;BME280;61519;60.050;18.582;2024-01-30T07:25:10;102441.38;;;1.50;64.57
73284;BME280;61519;60.050;18.582;2024-01-30T07:27:36;102436.25;;;1.48;64.64
73284;BME280;61519;60.050;18.582;2024-01-30T07:30:02;102435.84;;;1.56;64.46
73284;BME280;61519;60.050;18.582;2024-01-30T07:32:27;102402.22;;;1.36;64.51
73284;BME280;61519;60.050;18.582;2024-01-30T07:34:52;102408.94;;;1.40;64.49
73284;BME280;61519;60.050;18.582;2024-01-30T07:37:18;102394.88;;;1.44;64.45
73284;BME280;61519;60.050;18.582;2024-01-30T07:39:43;102432.47;;;1.71;64.56
73284;BME280;61519;60.050;18.582;2024-01-30T07:42:09;102434.72;;;1.77;64.33
73284;BME280;61519;60.050;18.582;2024-01-30T07:44:34;102409.06;;;1.71;64.26
73284;BME280;61519;60.050;18.582;2024-01-30T07:46:59;102415.31;;;1.84;64.35
73284;BME280;61519;60.050;18.582;2024-01-30T07:49:25;102448.94;;;2.04;64.14
73284;BME280;61519;60.050;18.582;2024-01-30T07:51:50;102434.66;;;2.11;64.24
73284;BME280;61519;60.050;18.582;2024-01-30T07:54:16;102448.09;;;2.19;63.95
73284;BME280;61519;60.050;18.582;2024-01-30T07:56:41;102403.41;;;2.11;63.69
73284;BME280;61519;60.050;18.582;2024-01-30T07:59:10;102398.56;;;2.21;63.89
73284;BME280;61519;60.050;18.582;2024-01-30T08:01:35;102425.94;;;2.43;63.73
73284;BME280;61519;60.050;18.582;2024-01-30T08:04:00;102379.84;;;2.30;63.54
73284;BME280;61519;60.050;18.582;2024-01-30T08:06:26;102427.28;;;2.66;63.49
73284;BME280;61519;60.050;18.582;2024-01-30T08:08:51;102406.44;;;2.66;63.40
73284;BME280;61519;60.050;18.582;2024-01-30T08:11:20;102391.13;;;2.76;63.48
73284;BME280;61519;60.050;18.582;2024-01-30T08:13:45;102402.00;;;2.98;63.20
73284;BME280;61519;60.050;18.582;2024-01-30T08:16:10;102397.94;;;3.08;63.01
73284;BME280;61519;60.050;18.582;2024-01-30T08:18:36;102419.22;;;3.30;63.13
73284;BME280;61519;60.050;18.582;2024-01-30T08:21:01;102409.25;;;3.36;63.05
73284;BME280;61519;60.050;18.582;2024-01-30T08:23:26;102410.41;;;3.46;62.93
73284;BME280;61519;60.050;18.582;2024-01-30T08:25:52;102405.81;;;3.50;62.53
73284;BME280;61519;60.050;18.582;2024-01-30T08:28:17;102418.88;;;3.50;62.75
73284;BME280;61519;60.050;18.582;2024-01-30T08:30:43;102386.63;;;3.37;62.65
73284;BME280;61519;60.050;18.582;2024-01-30T08:33:08;102406.19;;;3.44;62.89
73284;BME280;61519;60.050;18.582;2024-01-30T08:35:33;102395.09;;;3.40;62.90
73284;BME280;61519;60.050;18.582;2024-01-30T08:37:59;102405.75;;;3.51;62.83
73284;BME280;61519;60.050;18.582;2024-01-30T08:40:25;102388.88;;;3.43;62.88
73284;BME280;61519;60.050;18.582;2024-01-30T08:42:50;102407.69;;;3.62;62.93
73284;BME280;61519;60.050;18.582;2024-01-30T08:45:15;102398.75;;;3.66;62.77
73284;BME280;61519;60.050;18.582;2024-01-30T08:47:41;102402.13;;;3.82;62.57
73284;BME280;61519;60.050;18.582;2024-01-30T08:50:07;102400.00;;;3.89;62.68
73284;BME280;61519;60.050;18.582;2024-01-30T08:52:32;102389.06;;;3.96;62.60
73284;BME280;61519;60.050;18.582;2024-01-30T08:54:59;102382.72;;;4.00;62.42
73284;BME280;61519;60.050;18.582;2024-01-30T08:57:24;102391.47;;;4.13;62.23
73284;BME280;61519;60.050;18.582;2024-01-30T08:59:53;102402.63;;;4.29;62.21
73284;BME280;61519;60.050;18.582;2024-01-30T09:02:19;102393.06;;;4.42;62.00
73284;BME280;61519;60.050;18.582;2024-01-30T09:04:44;102389.56;;;4.56;62.11
73284;BME280;61519;60.050;18.582;2024-01-30T09:07:09;102361.34;;;4.48;62.04
73284;BME280;61519;60.050;18.582;2024-01-30T09:09:35;102392.38;;;4.80;61.67
73284;BME280;61519;60.050;18.582;2024-01-30T09:12:00;102380.25;;;4.79;61.82
73284;BME280;61519;60.050;18.582;2024-01-30T09:14:32;102402.25;;;5.01;61.73
73284;BME280;61519;60.050;18.582;2024-01-30T09:16:57;102397.91;;;5.14;61.64
73284;BME280;61519;60.050;18.582;2024-01-30T09:19:22;102362.34;;;5.12;61.44
73284;BME280;61519;60.050;18.582;2024-01-30T09:21:48;102360.06;;;5.32;61.15
73284;BME280;61519;60.050;18.582;2024-01-30T09:24:13;102376.06;;;5.66;61.32
73284;BME280;61519;60.050;18.582;2024-01-30T09:26:38;102358.56;;;5.79;61.03
73284;BME280;61519;60.050;18.582;2024-01-30T09:29:03;102339.53;;;5.89;60.99
73284;BME280;61519;60.050;18.582;2024-01-30T09:31:29;102342.19;;;6.13;60.77
73284;BME280;61519;60.050;18.582;2024-01-30T09:33:54;102347.16;;;6.29;60.31
73284;BME280;61519;60.050;18.582;2024-01-30T09:36:20;102329.91;;;6.37;60.21
73284;BME280;61519;60.050;18.582;2024-01-30T09:38:45;102351.84;;;6.60;60.45
73284;BME280;61519;60.050;18.582;2024-01-30T09:41:11;102339.22;;;6.65;60.21
73284;BME280;61519;60.050;18.582;2024-01-30T09:43:37;102340.06;;;6.65;60.23
73284;BME280;61519;60.050;18.582;2024-01-30T09:46:04;102353.09;;;6.78;60.08
73284;BME280;61519;60.050;18.582;2024-01-30T09:48:30;102375.22;;;6.97;60.08
73284;BME280;61519;60.050;18.582;2024-01-30T09:50:57;102377.72;;;6.99;60.00
73284;BME280;61519;60.050;18.582;2024-01-30T09:53:23;102376.75;;;7.00;59.95
73284;BME280;61519;60.050;18.582;2024-01-30T09:55:50;102366.91;;;7.03;60.01
73284;BME280;61519;60.050;18.582;2024-01-30T09:58:15;102331.69;;;6.95;59.99
73284;BME280;61519;60.050;18.582;2024-01-30T10:00:41;102357.03;;;7.18;60.10
73284;BME280;61519;60.050;18.582;2024-01-30T10:03:06;102358.97;;;7.27;59.89
73284;BME280;61519;60.050;18.582;2024-01-30T10:05:32;102362.06;;;7.32;59.78
73284;BME280;61519;60.050;18.582;2024-01-30T10:07:59;102371.38;;;7.36;60.06
73284;BME280;61519;60.050;18.582;2024-01-30T10:10:25;102346.06;;;7.24;59.66
73284;BME280;61519;60.050;18.582;2024-01-30T10:12:50;102367.06;;;7.35;59.53
73284;BME280;61519;60.050;18.582;2024-01-30T10:15:17;102336.53;;;7.23;59.94
73284;BME280;61519;60.050;18.582;2024-01-30T10:17:44;102354.53;;;7.28;60.18
73284;BME280;61519;60.050;18.582;2024-01-30T10:20:10;102336.03;;;7.18;60.00
73284;BME280;61519;60.050;18.582;2024-01-30T10:22:35;102341.63;;;7.13;59.97
73284;BME280;61519;60.050;18.582;2024-01-30T10:25:01;102341.28;;;7.07;60.14
73284;BME280;61519;60.050;18.582;2024-01-30T10:27:26;102327.16;;;6.86;60.14
73284;BME280;61519;60.050;18.582;2024-01-30T10:29:52;102329.06;;;6.84;60.15
73284;BME280;61519;60.050;18.582;2024-01-30T10:32:18;102324.25;;;6.78;60.21
73284;BME280;61519;60.050;18.582;2024-01-30T10:34:44;102335.88;;;6.97;60.24
73284;BME280;61519;60.050;18.582;2024-01-30T10:37:11;102309.06;;;7.05;59.99
73284;BME280;61519;60.050;18.582;2024-01-30T10:39:44;102318.28;;;7.44;59.78
73284;BME280;61519;60.050;18.582;2024-01-30T10:42:15;102311.50;;;7.63;59.67
73284;BME280;61519;60.050;18.582;2024-01-30T10:45:07;102321.28;;;7.83;59.43
73284;BME280;61519;60.050;18.582;2024-01-30T10:47:43;102309.78;;;7.84;59.16
73284;BME280;61519;60.050;18.582;2024-01-30T10:50:13;102323.16;;;8.04;59.27
73284;BME280;61519;60.050;18.582;2024-01-30T10:52:40;102315.13;;;8.05;59.28
73284;BME280;61519;60.050;18.582;2024-01-30T10:55:07;102306.44;;;7.93;59.27
73284;BME280;61519;60.050;18.582;2024-01-30T10:57:37;102291.31;;;7.75;59.39
73284;BME280;61519;60.050;18.582;2024-01-30T11:00:07;102314.81;;;7.76;59.46
73284;BME280;61519;60.050;18.582;2024-01-30T11:02:38;102310.56;;;7.64;59.42
73284;BME280;61519;60.050;18.582;2024-01-30T11:05:05;102318.53;;;7.52;59.66
73284;BME280;61519;60.050;18.582;2024-01-30T11:07:31;102303.88;;;7.27;59.61
73284;BME280;61519;60.050;18.582;2024-01-30T11:10:00;102317.44;;;7.21;59.87
73284;BME280;61519;60.050;18.582;2024-01-30T11:12:27;102301.91;;;7.07;60.03
73284;BME280;61519;60.050;18.582;2024-01-30T11:15:08;102311.44;;;7.08;59.93
73284;BME280;61519;60.050;18.582;2024-01-30T11:20:30;102294.72;;;6.98;60.35
73284;BME280;61519;60.050;18.582;2024-01-30T11:23:01;102290.91;;;6.91;60.26
73284;BME280;61519;60.050;18.582;2024-01-30T11:25:31;102286.47;;;6.80;60.47
73284;BME280;61519;60.050;18.582;2024-01-30T11:27:57;102259.75;;;6.64;60.22
73284;BME280;61519;60.050;18.582;2024-01-30T11:30:30;102272.50;;;6.69;60.46
73284;BME280;61519;60.050;18.582;2024-01-30T11:33:09;102272.94;;;6.63;60.54
73284;BME280;61519;60.050;18.582;2024-01-30T11:35:44;102263.16;;;6.54;60.79
73284;BME280;61519;60.050;18.582;2024-01-30T11:38:16;102246.69;;;6.41;60.67
73284;BME280;61519;60.050;18.582;2024-01-30T11:40:41;102271.59;;;6.46;60.94
73284;BME280;61519;60.050;18.582;2024-01-30T11:43:25;102267.66;;;6.41;60.94
73284;BME280;61519;60.050;18.582;2024-01-30T11:45:51;102260.56;;;6.30;60.68
73284;BME280;61519;60.050;18.582;2024-01-30T11:48:16;102225.09;;;6.02;60.92
73284;BME280;61519;60.050;18.582;2024-01-30T11:50:42;102256.84;;;6.21;60.97
73284;BME280;61519;60.050;18.582;2024-01-30T11:53:10;102243.91;;;6.07;61.03
73284;BME280;61519;60.050;18.582;2024-01-30T11:55:35;102257.00;;;6.07;61.24
73284;BME280;61519;60.050;18.582;2024-01-30T11:58:02;102242.44;;;6.03;61.32
73284;BME280;61519;60.050;18.582;2024-01-30T12:00:29;102235.56;;;6.02;61.44
73284;BME280;61519;60.050;18.582;2024-01-30T12:02:56;102220.53;;;5.93;61.46
73284;BME280;61519;60.050;18.582;2024-01-30T12:05:22;102204.28;;;5.88;61.75
73284;BME280;61519;60.050;18.582;2024-01-30T12:07:48;102215.28;;;5.93;61.50
73284;BME280;61519;60.050;18.582;2024-01-30T12:10:14;102219.34;;;5.97;61.39
73284;BME280;61519;60.050;18.582;2024-01-30T12:12:41;102226.75;;;6.03;61.45
73284;BME280;61519;60.050;18.582;2024-01-30T12:15:08;102222.47;;;6.02;61.61
73284;BME280;61519;60.050;18.582;2024-01-30T12:17:34;102203.13;;;5.92;61.60
73284;BME280;61519;60.050;18.582;2024-01-30T12:20:14;102207.53;;;5.92;61.64
73284;BME280;61519;60.050;18.582;2024-01-30T12:22:41;102191.00;;;5.91;61.79
73284;BME280;61519;60.050;18.582;2024-01-30T12:25:12;102213.56;;;6.05;61.56
73284;BME280;61519;60.050;18.582;2024-01-30T12:27:37;102203.53;;;5.99;61.62
73284;BME280;61519;60.050;18.582;2024-01-30T12:30:11;102188.59;;;5.88;61.73
73284;BME280;61519;60.050;18.582;2024-01-30T12:32:39;102176.75;;;5.83;61.88
73284;BME280;61519;60.050;18.582;2024-01-30T12:35:16;102201.84;;;5.98;61.95
73284;BME280;61519;60.050;18.582;2024-01-30T12:37:46;102197.88;;;5.92;62.15
73284;BME280;61519;60.050;18.582;2024-01-30T12:40:13;102201.56;;;5.90;62.12
73284;BME280;61519;60.050;18.582;2024-01-30T12:42:43;102181.59;;;5.76;62.03
73284;BME280;61519;60.050;18.582;2024-01-30T12:45:11;102171.78;;;5.67;62.17
73284;BME280;61519;60.050;18.582;2024-01-30T12:47:36;102183.03;;;5.80;62.08